sensor_id;sensor_type;location;lat;lon;timestamp;P1;durP1;ratioP1;P2;durP2;ratioP2
52380;SDS011;38310;52.796;6.942;2023-03-11T00:00:48;3.42;;;2.78;;
52380;SDS011;38310;52.796;6.942;2023-03-11T00:03:15;4.65;;;2.20;;
52380;SDS011;38310;52.796;6.942;2023-03-11T00:05:43;4.93;;;2.20;;
52380;SDS011;38310;52.796;6.942;2023-03-11T00:08:14;6.22;;;2.22;;
52380;SDS011;38310;52.796;6.942;2023-03-11T00:10:43;4.18;;;2.42;;
52380;SDS011;38310;52.796;6.942;2023-03-11T00:13:11;9.50;;;2.58;;
52380;SDS011;38310;52.796;6.942;2023-03-11T00:15:38;5.53;;;2.20;;
52380;SDS011;38310;52.796;6.942;2023-03-11T00:18:05;6.15;;;2.60;;
52380;SDS011;38310;52.796;6.942;2023-03-11T00:20:32;5.72;;;2.53;;
52380;SDS011;38310;52.796;6.942;2023-03-11T00:23:00;4.70;;;2.13;;
52380;SDS011;38310;52.796;6.942;2023-03-11T00:25:27;5.03;;;2.25;;
52380;SDS011;38310;52.796;6.942;2023-03-11T00:27:55;5.75;;;2.28;;
52380;SDS011;38310;52.796;6.942;2023-03-11T00:30:21;5.22;;;2.60;;
52380;SDS011;38310;52.796;6.942;2023-03-11T00:32:48;4.75;;;2.47;;
52380;SDS011;38310;52.796;6.942;2023-03-11T00:35:16;5.35;;;2.50;;
52380;SDS011;38310;52.796;6.942;2023-03-11T00:37:43;4.65;;;3.08;;
52380;SDS011;38310;52.796;6.942;2023-03-11T00:40:11;3.80;;;2.38;;
52380;SDS011;38310;52.796;6.942;2023-03-11T00:42:38;5.00;;;2.20;;
52380;SDS011;38310;52.796;6.942;2023-03-11T00:45:04;6.05;;;2.67;;
52380;SDS011;38310;52.796;6.942;2023-03-11T00:47:30;7.80;;;2.33;;
52380;SDS011;38310;52.796;6.942;2023-03-11T00:49:55;6.70;;;2.80;;
52380;SDS011;38310;52.796;6.942;2023-03-11T00:52:21;6.57;;;2.85;;
52380;SDS011;38310;52.796;6.942;2023-03-11T00:54:47;5.68;;;2.38;;
52380;SDS011;38310;52.796;6.942;2023-03-11T00:57:13;5.93;;;2.40;;
52380;SDS011;38310;52.796;6.942;2023-03-11T00:59:38;4.75;;;2.30;;
52380;SDS011;38310;52.796;6.942;2023-03-11T01:02:04;4.85;;;2.78;;
52380;SDS011;38310;52.796;6.942;2023-03-11T01:04:30;7.32;;;2.35;;
52380;SDS011;38310;52.796;6.942;2023-03-11T01:06:55;7.40;;;2.67;;
52380;SDS011;38310;52.796;6.942;2023-03-11T01:09:22;7.45;;;2.83;;
52380;SDS011;38310;52.796;6.942;2023-03-11T01:11:47;5.00;;;2.50;;
52380;SDS011;38310;52.796;6.942;2023-03-11T01:14:13;10.88;;;2.88;;
52380;SDS011;38310;52.796;6.942;2023-03-11T01:16:39;5.90;;;2.33;;
52380;SDS011;38310;52.796;6.942;2023-03-11T01:19:04;7.82;;;2.60;;
52380;SDS011;38310;52.796;6.942;2023-03-11T01:21:30;8.07;;;3.00;;
52380;SDS011;38310;52.796;6.942;2023-03-11T01:23:56;6.78;;;2.75;;
52380;SDS011;38310;52.796;6.942;2023-03-11T01:26:22;8.82;;;2.92;;
52380;SDS011;38310;52.796;6.942;2023-03-11T01:28:47;3.83;;;2.33;;
52380;SDS011;38310;52.796;6.942;2023-03-11T01:31:13;7.38;;;2.58;;
52380;SDS011;38310;52.796;6.942;2023-03-11T01:33:39;13.30;;;3.20;;
52380;SDS011;38310;52.796;6.942;2023-03-11T01:36:04;7.07;;;2.80;;
52380;SDS011;38310;52.796;6.942;2023-03-11T01:38:30;4.38;;;2.58;;
52380;SDS011;38310;52.796;6.942;2023-03-11T01:40:56;7.25;;;2.35;;
52380;SDS011;38310;52.796;6.942;2023-03-11T01:48:37;8.25;;;2.78;;
52380;SDS011;38310;52.796;6.942;2023-03-11T01:51:04;5.13;;;2.60;;
52380;SDS011;38310;52.796;6.942;2023-03-11T01:53:31;5.90;;;2.20;;
52380;SDS011;38310;52.796;6.942;2023-03-11T01:55:57;3.63;;;2.10;;
52380;SDS011;38310;52.796;6.942;2023-03-11T01:58:24;5.97;;;2.10;;
52380;SDS011;38310;52.796;6.942;2023-03-11T02:00:52;5.30;;;2.10;;
52380;SDS011;38310;52.796;6.942;2023-03-11T02:03:20;4.53;;;1.95;;
52380;SDS011;38310;52.796;6.942;2023-03-11T02:05:51;7.18;;;2.28;;
52380;SDS011;38310;52.796;6.942;2023-03-11T02:08:19;6.40;;;2.40;;
52380;SDS011;38310;52.796;6.942;2023-03-11T02:10:45;6.53;;;2.47;;
52380;SDS011;38310;52.796;6.942;2023-03-11T02:13:13;4.97;;;2.67;;
52380;SDS011;38310;52.796;6.942;2023-03-11T02:15:40;5.07;;;2.72;;
52380;SDS011;38310;52.796;6.942;2023-03-11T02:18:06;6.20;;;2.35;;
52380;SDS011;38310;52.796;6.942;2023-03-11T02:20:51;6.93;;;2.25;;
52380;SDS011;38310;52.796;6.942;2023-03-11T02:23:22;5.32;;;2.00;;
52380;SDS011;38310;52.796;6.942;2023-03-11T02:25:57;5.90;;;2.03;;
52380;SDS011;38310;52.796;6.942;2023-03-11T02:28:30;5.88;;;2.63;;
52380;SDS011;38310;52.796;6.942;2023-03-11T02:30:57;5.60;;;2.75;;
52380;SDS011;38310;52.796;6.942;2023-03-11T02:33:23;6.28;;;2.58;;
52380;SDS011;38310;52.796;6.942;2023-03-11T02:35:53;6.85;;;1.80;;
52380;SDS011;38310;52.796;6.942;2023-03-11T02:38:19;10.70;;;2.42;;
52380;SDS011;38310;52.796;6.942;2023-03-11T02:40:46;5.65;;;2.65;;
52380;SDS011;38310;52.796;6.942;2023-03-11T02:43:25;7.13;;;2.10;;
52380;SDS011;38310;52.796;6.942;2023-03-11T02:45:58;6.75;;;2.10;;
52380;SDS011;38310;52.796;6.942;2023-03-11T02:48:24;4.07;;;1.90;;
52380;SDS011;38310;52.796;6.942;2023-03-11T02:50:51;5.32;;;2.47;;
52380;SDS011;38310;52.796;6.942;2023-03-11T02:53:18;3.95;;;1.98;;
52380;SDS011;38310;52.796;6.942;2023-03-11T02:55:44;5.82;;;2.00;;
52380;SDS011;38310;52.796;6.942;2023-03-11T02:58:09;4.07;;;1.98;;
52380;SDS011;38310;52.796;6.942;2023-03-11T03:00:35;9.50;;;2.15;;
52380;SDS011;38310;52.796;6.942;2023-03-11T03:03:01;6.10;;;2.05;;
52380;SDS011;38310;52.796;6.942;2023-03-11T03:05:27;4.82;;;2.53;;
52380;SDS011;38310;52.796;6.942;2023-03-11T03:07:53;6.40;;;1.70;;
52380;SDS011;38310;52.796;6.942;2023-03-11T03:10:19;6.97;;;2.50;;
52380;SDS011;38310;52.796;6.942;2023-03-11T03:12:45;6.93;;;1.90;;
52380;SDS011;38310;52.796;6.942;2023-03-11T03:15:11;7.63;;;2.65;;
52380;SDS011;38310;52.796;6.942;2023-03-11T03:17:37;4.70;;;2.00;;
52380;SDS011;38310;52.796;6.942;2023-03-11T03:20:03;3.70;;;1.80;;
52380;SDS011;38310;52.796;6.942;2023-03-11T03:22:33;6.78;;;2.50;;
52380;SDS011;38310;52.796;6.942;2023-03-11T03:24:58;5.95;;;1.98;;
52380;SDS011;38310;52.796;6.942;2023-03-11T03:27:24;6.13;;;2.13;;
52380;SDS011;38310;52.796;6.942;2023-03-11T03:29:50;4.57;;;2.13;;
52380;SDS011;38310;52.796;6.942;2023-03-11T03:32:15;4.75;;;1.75;;
52380;SDS011;38310;52.796;6.942;2023-03-11T03:34:41;3.90;;;1.80;;
52380;SDS011;38310;52.796;6.942;2023-03-11T03:37:07;5.43;;;2.05;;
52380;SDS011;38310;52.796;6.942;2023-03-11T03:39:32;4.93;;;2.30;;
52380;SDS011;38310;52.796;6.942;2023-03-11T03:41:58;6.10;;;2.20;;
52380;SDS011;38310;52.796;6.942;2023-03-11T03:44:24;5.22;;;2.20;;
52380;SDS011;38310;52.796;6.942;2023-03-11T03:46:49;4.05;;;2.00;;
52380;SDS011;38310;52.796;6.942;2023-03-11T03:49:15;7.72;;;1.90;;
52380;SDS011;38310;52.796;6.942;2023-03-11T03:51:41;5.80;;;2.30;;
52380;SDS011;38310;52.796;6.942;2023-03-11T03:54:07;5.50;;;2.20;;
52380;SDS011;38310;52.796;6.942;2023-03-11T03:56:35;6.03;;;1.70;;
52380;SDS011;38310;52.796;6.942;2023-03-11T03:59:00;4.57;;;1.90;;
52380;SDS011;38310;52.796;6.942;2023-03-11T04:01:26;3.38;;;1.88;;
52380;SDS011;38310;52.796;6.942;2023-03-11T04:03:52;10.18;;;2.33;;
52380;SDS011;38310;52.796;6.942;2023-03-11T04:06:19;3.22;;;1.83;;
52380;SDS011;38310;52.796;6.942;2023-03-11T04:08:47;4.50;;;1.90;;
52380;SDS011;38310;52.796;6.942;2023-03-11T04:11:15;4.95;;;1.83;;
52380;SDS011;38310;52.796;6.942;2023-03-11T04:13:41;4.30;;;1.75;;
52380;SDS011;38310;52.796;6.942;2023-03-11T04:16:09;2.60;;;1.50;;
52380;SDS011;38310;52.796;6.942;2023-03-11T04:18:38;3.47;;;1.70;;
52380;SDS011;38310;52.796;6.942;2023-03-11T04:21:04;6.95;;;1.85;;
52380;SDS011;38310;52.796;6.942;2023-03-11T04:23:30;5.65;;;1.80;;
52380;SDS011;38310;52.796;6.942;2023-03-11T04:25:56;4.53;;;1.50;;
52380;SDS011;38310;52.796;6.942;2023-03-11T04:28:22;5.35;;;2.25;;
52380;SDS011;38310;52.796;6.942;2023-03-11T04:30:47;6.10;;;2.10;;
52380;SDS011;38310;52.796;6.942;2023-03-11T04:33:13;5.43;;;2.03;;
52380;SDS011;38310;52.796;6.942;2023-03-11T04:35:39;5.78;;;2.08;;
52380;SDS011;38310;52.796;6.942;2023-03-11T04:38:05;3.55;;;1.80;;
52380;SDS011;38310;52.796;6.942;2023-03-11T04:40:30;3.70;;;1.75;;
52380;SDS011;38310;52.796;6.942;2023-03-11T04:42:56;5.60;;;2.10;;
52380;SDS011;38310;52.796;6.942;2023-03-11T04:45:22;3.55;;;1.98;;
52380;SDS011;38310;52.796;6.942;2023-03-11T04:47:48;5.28;;;2.03;;
52380;SDS011;38310;52.796;6.942;2023-03-11T04:50:15;4.35;;;1.80;;
52380;SDS011;38310;52.796;6.942;2023-03-11T04:52:41;3.13;;;1.80;;
52380;SDS011;38310;52.796;6.942;2023-03-11T04:55:07;5.80;;;2.15;;
52380;SDS011;38310;52.796;6.942;2023-03-11T04:57:33;6.22;;;2.17;;
52380;SDS011;38310;52.796;6.942;2023-03-11T04:59:59;5.80;;;2.08;;
52380;SDS011;38310;52.796;6.942;2023-03-11T05:02:25;4.90;;;1.90;;
52380;SDS011;38310;52.796;6.942;2023-03-11T05:04:51;7.47;;;2.05;;
52380;SDS011;38310;52.796;6.942;2023-03-11T05:07:16;7.60;;;1.88;;
52380;SDS011;38310;52.796;6.942;2023-03-11T05:09:42;2.58;;;1.88;;
52380;SDS011;38310;52.796;6.942;2023-03-11T05:12:09;3.65;;;1.88;;
52380;SDS011;38310;52.796;6.942;2023-03-11T05:14:36;5.20;;;2.03;;
52380;SDS011;38310;52.796;6.942;2023-03-11T05:17:02;5.68;;;1.98;;
52380;SDS011;38310;52.796;6.942;2023-03-11T05:19:28;4.50;;;1.80;;
52380;SDS011;38310;52.796;6.942;2023-03-11T05:21:58;3.33;;;2.25;;
52380;SDS011;38310;52.796;6.942;2023-03-11T05:24:23;2.22;;;1.85;;
52380;SDS011;38310;52.796;6.942;2023-03-11T05:26:50;4.25;;;2.08;;
52380;SDS011;38310;52.796;6.942;2023-03-11T05:29:16;4.78;;;1.85;;
52380;SDS011;38310;52.796;6.942;2023-03-11T05:31:42;4.68;;;2.08;;
52380;SDS011;38310;52.796;6.942;2023-03-11T05:34:08;2.97;;;1.42;;
52380;SDS011;38310;52.796;6.942;2023-03-11T05:36:34;8.38;;;2.33;;
52380;SDS011;38310;52.796;6.942;2023-03-11T05:38:59;6.57;;;2.13;;
52380;SDS011;38310;52.796;6.942;2023-03-11T05:41:25;5.60;;;2.03;;
52380;SDS011;38310;52.796;6.942;2023-03-11T05:43:51;5.85;;;1.98;;
52380;SDS011;38310;52.796;6.942;2023-03-11T05:46:16;3.08;;;1.77;;
52380;SDS011;38310;52.796;6.942;2023-03-11T05:48:43;4.68;;;2.10;;
52380;SDS011;38310;52.796;6.942;2023-03-11T05:51:09;4.63;;;2.35;;
52380;SDS011;38310;52.796;6.942;2023-03-11T05:53:35;5.10;;;2.47;;
52380;SDS011;38310;52.796;6.942;2023-03-11T05:56:02;4.75;;;2.35;;
52380;SDS011;38310;52.796;6.942;2023-03-11T05:58:29;3.40;;;2.00;;
52380;SDS011;38310;52.796;6.942;2023-03-11T06:00:56;5.10;;;1.92;;
52380;SDS011;38310;52.796;6.942;2023-03-11T06:03:24;5.40;;;2.33;;
52380;SDS011;38310;52.796;6.942;2023-03-11T06:05:50;4.50;;;2.05;;
52380;SDS011;38310;52.796;6.942;2023-03-11T06:08:17;3.97;;;1.95;;
52380;SDS011;38310;52.796;6.942;2023-03-11T06:10:43;3.78;;;1.98;;
52380;SDS011;38310;52.796;6.942;2023-03-11T06:13:09;3.63;;;1.80;;
52380;SDS011;38310;52.796;6.942;2023-03-11T06:15:35;4.90;;;2.03;;
52380;SDS011;38310;52.796;6.942;2023-03-11T06:18:02;4.82;;;1.95;;
52380;SDS011;38310;52.796;6.942;2023-03-11T06:20:28;3.80;;;2.00;;
52380;SDS011;38310;52.796;6.942;2023-03-11T06:22:54;3.47;;;2.00;;
52380;SDS011;38310;52.796;6.942;2023-03-11T06:25:20;5.68;;;1.67;;
52380;SDS011;38310;52.796;6.942;2023-03-11T06:27:50;3.00;;;2.10;;
52380;SDS011;38310;52.796;6.942;2023-03-11T06:30:17;2.58;;;1.65;;
52380;SDS011;38310;52.796;6.942;2023-03-11T06:32:46;4.22;;;2.00;;
52380;SDS011;38310;52.796;6.942;2023-03-11T06:35:12;3.60;;;2.22;;
52380;SDS011;38310;52.796;6.942;2023-03-11T06:37:38;4.28;;;1.95;;
52380;SDS011;38310;52.796;6.942;2023-03-11T06:40:05;3.75;;;1.75;;
52380;SDS011;38310;52.796;6.942;2023-03-11T06:42:32;5.20;;;1.92;;
52380;SDS011;38310;52.796;6.942;2023-03-11T06:44:58;3.97;;;2.40;;
52380;SDS011;38310;52.796;6.942;2023-03-11T06:47:24;3.90;;;2.25;;
52380;SDS011;38310;52.796;6.942;2023-03-11T06:49:50;5.00;;;2.30;;
52380;SDS011;38310;52.796;6.942;2023-03-11T06:52:16;3.08;;;2.03;;
52380;SDS011;38310;52.796;6.942;2023-03-11T06:54:42;4.70;;;1.90;;
52380;SDS011;38310;52.796;6.942;2023-03-11T06:57:08;3.25;;;1.80;;
52380;SDS011;38310;52.796;6.942;2023-03-11T06:59:35;6.28;;;2.10;;
52380;SDS011;38310;52.796;6.942;2023-03-11T07:02:01;4.00;;;1.77;;
52380;SDS011;38310;52.796;6.942;2023-03-11T07:04:28;4.72;;;2.10;;
52380;SDS011;38310;52.796;6.942;2023-03-11T07:06:54;3.90;;;2.25;;
52380;SDS011;38310;52.796;6.942;2023-03-11T07:09:20;4.22;;;2.03;;
52380;SDS011;38310;52.796;6.942;2023-03-11T07:11:49;6.22;;;2.00;;
52380;SDS011;38310;52.796;6.942;2023-03-11T07:14:16;3.55;;;2.22;;
52380;SDS011;38310;52.796;6.942;2023-03-11T07:16:43;5.28;;;2.10;;
52380;SDS011;38310;52.796;6.942;2023-03-11T07:19:09;4.15;;;2.10;;
52380;SDS011;38310;52.796;6.942;2023-03-11T07:21:36;5.18;;;2.05;;
52380;SDS011;38310;52.796;6.942;2023-03-11T07:24:02;5.05;;;2.08;;
52380;SDS011;38310;52.796;6.942;2023-03-11T07:26:30;5.00;;;2.05;;
52380;SDS011;38310;52.796;6.942;2023-03-11T07:28:57;3.17;;;1.95;;
52380;SDS011;38310;52.796;6.942;2023-03-11T07:31:24;4.97;;;1.90;;
52380;SDS011;38310;52.796;6.942;2023-03-11T07:33:52;5.38;;;2.40;;
52380;SDS011;38310;52.796;6.942;2023-03-11T07:36:19;4.35;;;2.10;;
52380;SDS011;38310;52.796;6.942;2023-03-11T07:38:46;5.50;;;1.92;;
52380;SDS011;38310;52.796;6.942;2023-03-11T07:41:13;3.47;;;1.80;;
52380;SDS011;38310;52.796;6.942;2023-03-11T07:43:40;4.32;;;2.03;;
52380;SDS011;38310;52.796;6.942;2023-03-11T07:46:08;5.13;;;2.22;;
52380;SDS011;38310;52.796;6.942;2023-03-11T07:48:36;5.60;;;2.22;;
52380;SDS011;38310;52.796;6.942;2023-03-11T07:51:13;5.25;;;2.10;;
52380;SDS011;38310;52.796;6.942;2023-03-11T07:53:41;6.22;;;2.50;;
52380;SDS011;38310;52.796;6.942;2023-03-11T07:56:08;4.20;;;2.03;;
52380;SDS011;38310;52.796;6.942;2023-03-11T07:58:35;5.18;;;1.90;;
52380;SDS011;38310;52.796;6.942;2023-03-11T08:01:06;4.32;;;2.20;;
52380;SDS011;38310;52.796;6.942;2023-03-11T08:03:42;8.35;;;2.40;;
52380;SDS011;38310;52.796;6.942;2023-03-11T08:06:16;5.45;;;2.72;;
52380;SDS011;38310;52.796;6.942;2023-03-11T08:08:49;8.00;;;2.58;;
52380;SDS011;38310;52.796;6.942;2023-03-11T08:11:15;7.30;;;2.53;;
52380;SDS011;38310;52.796;6.942;2023-03-11T08:13:42;3.95;;;2.33;;
52380;SDS011;38310;52.796;6.942;2023-03-11T08:16:10;4.97;;;1.85;;
52380;SDS011;38310;52.796;6.942;2023-03-11T08:18:38;7.18;;;2.63;;
52380;SDS011;38310;52.796;6.942;2023-03-11T08:21:04;5.80;;;2.30;;
52380;SDS011;38310;52.796;6.942;2023-03-11T08:23:34;7.95;;;2.13;;
52380;SDS011;38310;52.796;6.942;2023-03-11T08:26:03;4.43;;;1.90;;
52380;SDS011;38310;52.796;6.942;2023-03-11T08:28:30;4.07;;;2.28;;
52380;SDS011;38310;52.796;6.942;2023-03-11T08:30:57;7.55;;;2.63;;
52380;SDS011;38310;52.796;6.942;2023-03-11T08:33:23;6.97;;;2.25;;
52380;SDS011;38310;52.796;6.942;2023-03-11T08:35:49;5.45;;;2.22;;
52380;SDS011;38310;52.796;6.942;2023-03-11T08:38:14;5.53;;;2.33;;
52380;SDS011;38310;52.796;6.942;2023-03-11T08:40:40;5.88;;;2.35;;
52380;SDS011;38310;52.796;6.942;2023-03-11T08:43:06;4.55;;;2.17;;
52380;SDS011;38310;52.796;6.942;2023-03-11T08:45:32;3.88;;;2.38;;
52380;SDS011;38310;52.796;6.942;2023-03-11T08:47:58;7.35;;;2.42;;
52380;SDS011;38310;52.796;6.942;2023-03-11T08:50:24;6.22;;;2.35;;
52380;SDS011;38310;52.796;6.942;2023-03-11T08:52:50;4.88;;;2.35;;
52380;SDS011;38310;52.796;6.942;2023-03-11T08:55:16;3.42;;;2.42;;
52380;SDS011;38310;52.796;6.942;2023-03-11T08:57:49;6.87;;;2.33;;
52380;SDS011;38310;52.796;6.942;2023-03-11T09:00:15;6.20;;;2.20;;
52380;SDS011;38310;52.796;6.942;2023-03-11T09:02:41;4.72;;;2.22;;
52380;SDS011;38310;52.796;6.942;2023-03-11T09:05:07;4.18;;;2.40;;
52380;SDS011;38310;52.796;6.942;2023-03-11T09:07:33;7.65;;;2.20;;
52380;SDS011;38310;52.796;6.942;2023-03-11T09:09:59;4.72;;;2.40;;
52380;SDS011;38310;52.796;6.942;2023-03-11T09:12:25;3.83;;;2.10;;
52380;SDS011;38310;52.796;6.942;2023-03-11T09:14:51;4.38;;;2.40;;
52380;SDS011;38310;52.796;6.942;2023-03-11T09:17:18;9.50;;;3.25;;
52380;SDS011;38310;52.796;6.942;2023-03-11T09:19:44;5.47;;;2.10;;
52380;SDS011;38310;52.796;6.942;2023-03-11T09:22:13;5.68;;;2.38;;
52380;SDS011;38310;52.796;6.942;2023-03-11T09:24:39;4.72;;;2.28;;
52380;SDS011;38310;52.796;6.942;2023-03-11T09:27:04;5.88;;;2.08;;
52380;SDS011;38310;52.796;6.942;2023-03-11T09:29:30;4.95;;;1.92;;
52380;SDS011;38310;52.796;6.942;2023-03-11T09:31:56;5.80;;;2.40;;
52380;SDS011;38310;52.796;6.942;2023-03-11T09:34:22;5.82;;;2.30;;
52380;SDS011;38310;52.796;6.942;2023-03-11T09:36:48;5.45;;;2.28;;
52380;SDS011;38310;52.796;6.942;2023-03-11T09:39:13;8.35;;;2.65;;
52380;SDS011;38310;52.796;6.942;2023-03-11T09:44:21;4.20;;;2.00;;
52380;SDS011;38310;52.796;6.942;2023-03-11T09:55:59;5.70;;;1.80;;
52380;SDS011;38310;52.796;6.942;2023-03-11T10:01:07;7.57;;;2.13;;
52380;SDS011;38310;52.796;6.942;2023-03-11T10:08:46;4.53;;;2.67;;
52380;SDS011;38310;52.796;6.942;2023-03-11T10:30:23;5.57;;;1.90;;
52380;SDS011;38310;52.796;6.942;2023-03-11T10:38:15;7.95;;;2.50;;
52380;SDS011;38310;52.796;6.942;2023-03-11T10:40:46;5.80;;;2.40;;
52380;SDS011;38310;52.796;6.942;2023-03-11T10:43:18;9.30;;;2.30;;
52380;SDS011;38310;52.796;6.942;2023-03-11T10:46:05;6.57;;;2.28;;
52380;SDS011;38310;52.796;6.942;2023-03-11T10:48:37;8.27;;;3.22;;
52380;SDS011;38310;52.796;6.942;2023-03-11T10:51:08;7.82;;;2.35;;
52380;SDS011;38310;52.796;6.942;2023-03-11T10:56:47;6.28;;;2.80;;
52380;SDS011;38310;52.796;6.942;2023-03-11T11:00:02;5.38;;;2.40;;
52380;SDS011;38310;52.796;6.942;2023-03-11T11:02:27;4.50;;;1.90;;
52380;SDS011;38310;52.796;6.942;2023-03-11T11:07:41;9.32;;;2.45;;
52380;SDS011;38310;52.796;6.942;2023-03-11T11:10:18;4.43;;;2.10;;
52380;SDS011;38310;52.796;6.942;2023-03-11T11:12:56;4.38;;;2.13;;
52380;SDS011;38310;52.796;6.942;2023-03-11T11:15:39;4.85;;;2.08;;
52380;SDS011;38310;52.796;6.942;2023-03-11T11:18:13;4.93;;;2.13;;
52380;SDS011;38310;52.796;6.942;2023-03-11T11:26:28;3.92;;;2.30;;
52380;SDS011;38310;52.796;6.942;2023-03-11T11:31:49;5.30;;;2.40;;
52380;SDS011;38310;52.796;6.942;2023-03-11T11:34:23;7.43;;;2.03;;
52380;SDS011;38310;52.796;6.942;2023-03-11T11:36:58;6.55;;;1.95;;
52380;SDS011;38310;52.796;6.942;2023-03-11T11:39:27;5.85;;;1.85;;
52380;SDS011;38310;52.796;6.942;2023-03-11T11:41:57;3.85;;;1.90;;
52380;SDS011;38310;52.796;6.942;2023-03-11T11:44:29;5.10;;;1.80;;
52380;SDS011;38310;52.796;6.942;2023-03-11T11:47:15;4.10;;;2.15;;
52380;SDS011;38310;52.796;6.942;2023-03-11T11:49:55;5.68;;;1.98;;
52380;SDS011;38310;52.796;6.942;2023-03-11T11:52:32;7.40;;;2.20;;
52380;SDS011;38310;52.796;6.942;2023-03-11T11:57:50;5.72;;;1.90;;
52380;SDS011;38310;52.796;6.942;2023-03-11T12:00:20;2.65;;;1.50;;
52380;SDS011;38310;52.796;6.942;2023-03-11T12:05:51;5.35;;;2.08;;
52380;SDS011;38310;52.796;6.942;2023-03-11T12:08:26;3.10;;;1.80;;
52380;SDS011;38310;52.796;6.942;2023-03-11T12:11:02;3.03;;;1.70;;
52380;SDS011;38310;52.796;6.942;2023-03-11T12:19:03;4.68;;;1.77;;
52380;SDS011;38310;52.796;6.942;2023-03-11T12:26:53;5.40;;;1.52;;
52380;SDS011;38310;52.796;6.942;2023-03-11T12:29:34;4.07;;;1.63;;
52380;SDS011;38310;52.796;6.942;2023-03-11T12:32:07;4.20;;;1.67;;
52380;SDS011;38310;52.796;6.942;2023-03-11T12:34:44;3.53;;;1.33;;
52380;SDS011;38310;52.796;6.942;2023-03-11T12:37:12;3.45;;;1.20;;
52380;SDS011;38310;52.796;6.942;2023-03-11T12:39:41;4.30;;;1.60;;
52380;SDS011;38310;52.796;6.942;2023-03-11T12:44:35;4.35;;;1.80;;
52380;SDS011;38310;52.796;6.942;2023-03-11T12:49:35;2.75;;;1.20;;
52380;SDS011;38310;52.796;6.942;2023-03-11T12:54:37;3.05;;;1.35;;
52380;SDS011;38310;52.796;6.942;2023-03-11T13:10:14;4.15;;;1.60;;
52380;SDS011;38310;52.796;6.942;2023-03-11T13:12:59;5.05;;;1.70;;
52380;SDS011;38310;52.796;6.942;2023-03-11T13:20:42;6.30;;;1.98;;
52380;SDS011;38310;52.796;6.942;2023-03-11T13:26:21;2.15;;;1.30;;
52380;SDS011;38310;52.796;6.942;2023-03-11T13:42:46;3.35;;;1.00;;
52380;SDS011;38310;52.796;6.942;2023-03-11T13:45:36;2.78;;;0.98;;
52380;SDS011;38310;52.796;6.942;2023-03-11T13:48:15;3.22;;;1.00;;
52380;SDS011;38310;52.796;6.942;2023-03-11T13:50:47;2.97;;;1.10;;
52380;SDS011;38310;52.796;6.942;2023-03-11T13:53:21;2.67;;;1.00;;
52380;SDS011;38310;52.796;6.942;2023-03-11T13:55:52;2.35;;;1.15;;
52380;SDS011;38310;52.796;6.942;2023-03-11T13:58:19;1.13;;;0.88;;
52380;SDS011;38310;52.796;6.942;2023-03-11T14:00:54;4.72;;;1.00;;
52380;SDS011;38310;52.796;6.942;2023-03-11T14:03:21;4.93;;;1.30;;
52380;SDS011;38310;52.796;6.942;2023-03-11T14:05:54;1.33;;;0.98;;
52380;SDS011;38310;52.796;6.942;2023-03-11T14:08:30;2.65;;;0.90;;
52380;SDS011;38310;52.796;6.942;2023-03-11T14:11:03;2.78;;;1.30;;
52380;SDS011;38310;52.796;6.942;2023-03-11T14:13:47;2.33;;;1.20;;
52380;SDS011;38310;52.796;6.942;2023-03-11T14:21:40;3.67;;;1.08;;
52380;SDS011;38310;52.796;6.942;2023-03-11T14:24:33;5.65;;;1.10;;
52380;SDS011;38310;52.796;6.942;2023-03-11T14:27:02;3.08;;;1.10;;
52380;SDS011;38310;52.796;6.942;2023-03-11T14:29:35;4.45;;;1.20;;
52380;SDS011;38310;52.796;6.942;2023-03-11T14:34:58;3.20;;;1.35;;
52380;SDS011;38310;52.796;6.942;2023-03-11T14:37:25;3.28;;;1.10;;
52380;SDS011;38310;52.796;6.942;2023-03-11T14:39:59;2.45;;;1.20;;
52380;SDS011;38310;52.796;6.942;2023-03-11T14:42:30;3.60;;;1.30;;
52380;SDS011;38310;52.796;6.942;2023-03-11T14:45:17;2.28;;;1.15;;
52380;SDS011;38310;52.796;6.942;2023-03-11T14:47:53;6.65;;;1.60;;
52380;SDS011;38310;52.796;6.942;2023-03-11T14:50:24;3.05;;;1.55;;
52380;SDS011;38310;52.796;6.942;2023-03-11T14:58:25;3.20;;;1.40;;
52380;SDS011;38310;52.796;6.942;2023-03-11T15:00:58;5.00;;;1.30;;
52380;SDS011;38310;52.796;6.942;2023-03-11T15:03:38;4.20;;;1.20;;
52380;SDS011;38310;52.796;6.942;2023-03-11T15:06:17;5.55;;;1.20;;
52380;SDS011;38310;52.796;6.942;2023-03-11T15:08:47;3.08;;;1.05;;
52380;SDS011;38310;52.796;6.942;2023-03-11T15:13:42;3.92;;;1.42;;
52380;SDS011;38310;52.796;6.942;2023-03-11T15:16:20;2.40;;;1.10;;
52380;SDS011;38310;52.796;6.942;2023-03-11T15:18:48;2.35;;;1.80;;
52380;SDS011;38310;52.796;6.942;2023-03-11T15:21:18;3.97;;;1.20;;
52380;SDS011;38310;52.796;6.942;2023-03-11T15:23:46;5.05;;;1.48;;
52380;SDS011;38310;52.796;6.942;2023-03-11T15:26:24;2.58;;;1.33;;
52380;SDS011;38310;52.796;6.942;2023-03-11T15:28:56;3.05;;;1.13;;
52380;SDS011;38310;52.796;6.942;2023-03-11T15:33:55;4.45;;;1.33;;
52380;SDS011;38310;52.796;6.942;2023-03-11T15:36:39;5.05;;;1.30;;
52380;SDS011;38310;52.796;6.942;2023-03-11T15:42:01;4.88;;;1.40;;
52380;SDS011;38310;52.796;6.942;2023-03-11T15:47:18;2.92;;;1.40;;
52380;SDS011;38310;52.796;6.942;2023-03-11T15:49:46;5.82;;;1.70;;
52380;SDS011;38310;52.796;6.942;2023-03-11T15:52:12;3.97;;;1.60;;
52380;SDS011;38310;52.796;6.942;2023-03-11T15:54:38;3.45;;;1.70;;
52380;SDS011;38310;52.796;6.942;2023-03-11T15:57:07;6.53;;;1.70;;
52380;SDS011;38310;52.796;6.942;2023-03-11T15:59:36;3.40;;;1.55;;
52380;SDS011;38310;52.796;6.942;2023-03-11T16:02:02;2.90;;;1.63;;
52380;SDS011;38310;52.796;6.942;2023-03-11T16:04:28;3.55;;;1.73;;
52380;SDS011;38310;52.796;6.942;2023-03-11T16:06:54;2.97;;;1.58;;
52380;SDS011;38310;52.796;6.942;2023-03-11T16:09:20;4.65;;;1.83;;
52380;SDS011;38310;52.796;6.942;2023-03-11T16:11:45;6.18;;;1.75;;
52380;SDS011;38310;52.796;6.942;2023-03-11T16:14:15;5.03;;;1.95;;
52380;SDS011;38310;52.796;6.942;2023-03-11T16:16:43;3.03;;;1.83;;
52380;SDS011;38310;52.796;6.942;2023-03-11T16:19:09;5.10;;;2.13;;
52380;SDS011;38310;52.796;6.942;2023-03-11T16:21:37;7.53;;;2.17;;
52380;SDS011;38310;52.796;6.942;2023-03-11T16:24:06;4.20;;;2.10;;
52380;SDS011;38310;52.796;6.942;2023-03-11T16:26:33;6.60;;;2.65;;
52380;SDS011;38310;52.796;6.942;2023-03-11T16:28:59;5.75;;;2.80;;
52380;SDS011;38310;52.796;6.942;2023-03-11T16:31:25;7.95;;;3.42;;
52380;SDS011;38310;52.796;6.942;2023-03-11T16:33:52;5.75;;;2.80;;
52380;SDS011;38310;52.796;6.942;2023-03-11T16:36:18;3.85;;;2.60;;
52380;SDS011;38310;52.796;6.942;2023-03-11T16:38:48;5.00;;;3.25;;
52380;SDS011;38310;52.796;6.942;2023-03-11T16:41:14;9.45;;;3.45;;
52380;SDS011;38310;52.796;6.942;2023-03-11T16:43:41;7.60;;;3.85;;
52380;SDS011;38310;52.796;6.942;2023-03-11T16:46:07;6.60;;;3.30;;
52380;SDS011;38310;52.796;6.942;2023-03-11T16:48:33;4.00;;;2.50;;
52380;SDS011;38310;52.796;6.942;2023-03-11T16:50:59;4.60;;;2.53;;
52380;SDS011;38310;52.796;6.942;2023-03-11T16:53:25;4.45;;;1.63;;
52380;SDS011;38310;52.796;6.942;2023-03-11T16:55:51;4.63;;;1.70;;
52380;SDS011;38310;52.796;6.942;2023-03-11T16:58:17;4.40;;;1.70;;
52380;SDS011;38310;52.796;6.942;2023-03-11T17:00:43;4.38;;;2.00;;
52380;SDS011;38310;52.796;6.942;2023-03-11T17:03:10;2.40;;;1.75;;
52380;SDS011;38310;52.796;6.942;2023-03-11T17:05:37;2.58;;;1.40;;
52380;SDS011;38310;52.796;6.942;2023-03-11T17:08:03;7.05;;;1.67;;
52380;SDS011;38310;52.796;6.942;2023-03-11T17:10:29;2.63;;;1.50;;
52380;SDS011;38310;52.796;6.942;2023-03-11T17:13:00;4.30;;;1.70;;
52380;SDS011;38310;52.796;6.942;2023-03-11T17:15:26;3.00;;;1.65;;
52380;SDS011;38310;52.796;6.942;2023-03-11T17:17:51;4.45;;;1.63;;
52380;SDS011;38310;52.796;6.942;2023-03-11T17:20:17;3.58;;;1.60;;
52380;SDS011;38310;52.796;6.942;2023-03-11T17:22:43;3.40;;;1.70;;